sensor_id;sensor_type;location;lat;lon;timestamp;temperature;humidity
7362;DHT22;3721;44.490;11.220;2022-07-29T00:00:41;26.60;71.40
7362;DHT22;3721;44.490;11.220;2022-07-29T00:03:10;26.60;71.40
7362;DHT22;3721;44.490;11.220;2022-07-29T00:05:39;26.60;71.60
7362;DHT22;3721;44.490;11.220;2022-07-29T00:08:05;26.60;71.70
7362;DHT22;3721;44.490;11.220;2022-07-29T00:10:30;26.60;71.80
7362;DHT22;3721;44.490;11.220;2022-07-29T00:12:56;26.60;71.90
7362;DHT22;3721;44.490;11.220;2022-07-29T00:15:22;26.60;72.00
7362;DHT22;3721;44.490;11.220;2022-07-29T00:17:48;26.60;72.00
7362;DHT22;3721;44.490;11.220;2022-07-29T00:20:13;26.60;72.00
7362;DHT22;3721;44.490;11.220;2022-07-29T00:22:39;26.60;72.10
7362;DHT22;3721;44.490;11.220;2022-07-29T00:25:06;26.60;72.10
7362;DHT22;3721;44.490;11.220;2022-07-29T00:27:33;26.50;72.10
7362;DHT22;3721;44.490;11.220;2022-07-29T00:29:59;26.50;72.10
7362;DHT22;3721;44.490;11.220;2022-07-29T00:32:25;26.40;72.10
7362;DHT22;3721;44.490;11.220;2022-07-29T00:34:50;26.30;72.30
7362;DHT22;3721;44.490;11.220;2022-07-29T00:37:35;26.30;72.50
7362;DHT22;3721;44.490;11.220;2022-07-29T00:40:00;26.20;72.70
7362;DHT22;3721;44.490;11.220;2022-07-29T00:42:26;26.10;72.90
7362;DHT22;3721;44.490;11.220;2022-07-29T00:44:52;26.00;73.20
7362;DHT22;3721;44.490;11.220;2022-07-29T00:47:18;26.00;73.60
7362;DHT22;3721;44.490;11.220;2022-07-29T00:49:44;25.90;73.60
7362;DHT22;3721;44.490;11.220;2022-07-29T00:52:11;25.90;73.80
7362;DHT22;3721;44.490;11.220;2022-07-29T00:54:39;25.90;74.00
7362;DHT22;3721;44.490;11.220;2022-07-29T00:57:07;25.90;74.00
7362;DHT22;3721;44.490;11.220;2022-07-29T00:59:35;25.90;74.00
7362;DHT22;3721;44.490;11.220;2022-07-29T01:02:02;25.90;73.90
7362;DHT22;3721;44.490;11.220;2022-07-29T01:04:28;25.90;73.80
7362;DHT22;3721;44.490;11.220;2022-07-29T01:06:55;25.90;73.80
7362;DHT22;3721;44.490;11.220;2022-07-29T01:09:21;25.90;73.90
7362;DHT22;3721;44.490;11.220;2022-07-29T01:11:48;25.90;74.00
7362;DHT22;3721;44.490;11.220;2022-07-29T01:14:15;25.90;74.00
7362;DHT22;3721;44.490;11.220;2022-07-29T01:17:06;25.90;73.90
7362;DHT22;3721;44.490;11.220;2022-07-29T01:19:56;25.90;74.10
7362;DHT22;3721;44.490;11.220;2022-07-29T01:30:35;25.70;74.30
7362;DHT22;3721;44.490;11.220;2022-07-29T01:33:11;25.70;74.30
7362;DHT22;3721;44.490;11.220;2022-07-29T01:36:01;25.70;74.40
7362;DHT22;3721;44.490;11.220;2022-07-29T01:38:30;25.70;74.40
7362;DHT22;3721;44.490;11.220;2022-07-29T01:41:05;25.70;74.40
7362;DHT22;3721;44.490;11.220;2022-07-29T01:43:49;25.70;74.40
7362;DHT22;3721;44.490;11.220;2022-07-29T01:46:29;25.70;74.30
7362;DHT22;3721;44.490;11.220;2022-07-29T01:49:18;25.80;74.20
7362;DHT22;3721;44.490;11.220;2022-07-29T01:51:52;25.70;74.10
7362;DHT22;3721;44.490;11.220;2022-07-29T01:54:37;25.70;73.90
7362;DHT22;3721;44.490;11.220;2022-07-29T01:57:05;25.80;73.90
7362;DHT22;3721;44.490;11.220;2022-07-29T01:59:33;25.70;73.60
7362;DHT22;3721;44.490;11.220;2022-07-29T02:02:01;25.70;73.60
7362;DHT22;3721;44.490;11.220;2022-07-29T02:04:27;25.70;73.40
7362;DHT22;3721;44.490;11.220;2022-07-29T02:07:00;25.70;73.30
7362;DHT22;3721;44.490;11.220;2022-07-29T02:09:29;25.70;73.10
7362;DHT22;3721;44.490;11.220;2022-07-29T02:11:56;25.70;73.00
7362;DHT22;3721;44.490;11.220;2022-07-29T02:14:23;25.70;72.80
7362;DHT22;3721;44.490;11.220;2022-07-29T02:16:52;25.70;72.70
7362;DHT22;3721;44.490;11.220;2022-07-29T02:19:21;25.70;72.60
7362;DHT22;3721;44.490;11.220;2022-07-29T02:21:51;25.70;72.50
7362;DHT22;3721;44.490;11.220;2022-07-29T02:24:20;25.70;72.30
7362;DHT22;3721;44.490;11.220;2022-07-29T02:26:47;25.70;72.20
7362;DHT22;3721;44.490;11.220;2022-07-29T02:29:15;25.60;72.10
7362;DHT22;3721;44.490;11.220;2022-07-29T02:31:41;25.60;72.00
7362;DHT22;3721;44.490;11.220;2022-07-29T02:34:10;25.60;71.90
7362;DHT22;3721;44.490;11.220;2022-07-29T02:36:37;25.60;71.80
7362;DHT22;3721;44.490;11.220;2022-07-29T02:39:04;25.60;71.90
7362;DHT22;3721;44.490;11.220;2022-07-29T02:41:50;25.60;71.90
7362;DHT22;3721;44.490;11.220;2022-07-29T02:44:21;25.60;71.80
7362;DHT22;3721;44.490;11.220;2022-07-29T02:49:36;25.60;71.60
7362;DHT22;3721;44.490;11.220;2022-07-29T02:52:07;25.60;71.50
7362;DHT22;3721;44.490;11.220;2022-07-29T02:54:48;25.60;71.50
7362;DHT22;3721;44.490;11.220;2022-07-29T02:57:32;25.60;71.40
7362;DHT22;3721;44.490;11.220;2022-07-29T03:00:04;25.60;71.50
7362;DHT22;3721;44.490;11.220;2022-07-29T03:02:35;25.60;71.40
7362;DHT22;3721;44.490;11.220;2022-07-29T03:05:02;25.60;71.30
7362;DHT22;3721;44.490;11.220;2022-07-29T03:07:29;25.60;71.20
7362;DHT22;3721;44.490;11.220;2022-07-29T03:09:56;25.60;71.20
7362;DHT22;3721;44.490;11.220;2022-07-29T03:12:22;25.60;71.00
7362;DHT22;3721;44.490;11.220;2022-07-29T03:14:49;25.60;71.00
7362;DHT22;3721;44.490;11.220;2022-07-29T03:17:15;25.60;71.00
7362;DHT22;3721;44.490;11.220;2022-07-29T03:19:42;25.60;71.00
7362;DHT22;3721;44.490;11.220;2022-07-29T03:22:08;25.60;70.90
7362;DHT22;3721;44.490;11.220;2022-07-29T03:24:36;25.60;71.00
7362;DHT22;3721;44.490;11.220;2022-07-29T03:27:02;25.60;70.80
7362;DHT22;3721;44.490;11.220;2022-07-29T03:29:28;25.60;70.80
7362;DHT22;3721;44.490;11.220;2022-07-29T03:31:54;25.60;70.70
7362;DHT22;3721;44.490;11.220;2022-07-29T03:34:20;25.50;70.60
7362;DHT22;3721;44.490;11.220;2022-07-29T03:36:47;25.50;70.70
7362;DHT22;3721;44.490;11.220;2022-07-29T03:39:16;25.50;70.70
7362;DHT22;3721;44.490;11.220;2022-07-29T03:41:45;25.50;70.70
7362;DHT22;3721;44.490;11.220;2022-07-29T03:44:12;25.50;70.70
7362;DHT22;3721;44.490;11.220;2022-07-29T03:46:39;25.50;70.60
7362;DHT22;3721;44.490;11.220;2022-07-29T03:49:08;25.50;70.60
7362;DHT22;3721;44.490;11.220;2022-07-29T03:51:35;25.50;70.70
7362;DHT22;3721;44.490;11.220;2022-07-29T03:54:04;25.40;70.70
7362;DHT22;3721;44.490;11.220;2022-07-29T03:56:32;25.40;70.90
7362;DHT22;3721;44.490;11.220;2022-07-29T03:59:01;25.40;71.10
7362;DHT22;3721;44.490;11.220;2022-07-29T04:01:29;25.40;71.30
7362;DHT22;3721;44.490;11.220;2022-07-29T04:03:55;25.30;71.30
7362;DHT22;3721;44.490;11.220;2022-07-29T04:06:21;25.30;71.40
7362;DHT22;3721;44.490;11.220;2022-07-29T04:08:47;25.30;71.70
7362;DHT22;3721;44.490;11.220;2022-07-29T04:11:13;25.30;71.50
7362;DHT22;3721;44.490;11.220;2022-07-29T04:13:39;25.30;71.40
7362;DHT22;3721;44.490;11.220;2022-07-29T04:16:05;25.20;71.40
7362;DHT22;3721;44.490;11.220;2022-07-29T04:18:30;25.20;71.50
7362;DHT22;3721;44.490;11.220;2022-07-29T04:20:56;25.20;71.50
7362;DHT22;3721;44.490;11.220;2022-07-29T04:23:26;25.20;71.50
7362;DHT22;3721;44.490;11.220;2022-07-29T04:25:52;25.30;71.60
7362;DHT22;3721;44.490;11.220;2022-07-29T04:28:18;25.30;71.60
7362;DHT22;3721;44.490;11.220;2022-07-29T04:30:44;25.30;71.50
7362;DHT22;3721;44.490;11.220;2022-07-29T04:33:09;25.30;71.50
7362;DHT22;3721;44.490;11.220;2022-07-29T04:35:37;25.30;71.40
7362;DHT22;3721;44.490;11.220;2022-07-29T04:38:04;25.30;71.40
7362;DHT22;3721;44.490;11.220;2022-07-29T04:40:30;25.30;71.50
7362;DHT22;3721;44.490;11.220;2022-07-29T04:42:55;25.30;71.60
7362;DHT22;3721;44.490;11.220;2022-07-29T04:45:22;25.30;71.60
7362;DHT22;3721;44.490;11.220;2022-07-29T04:47:47;25.30;71.50
7362;DHT22;3721;44.490;11.220;2022-07-29T04:50:13;25.30;71.50
7362;DHT22;3721;44.490;11.220;2022-07-29T04:52:39;25.30;71.70
7362;DHT22;3721;44.490;11.220;2022-07-29T04:55:05;25.20;71.80
7362;DHT22;3721;44.490;11.220;2022-07-29T04:57:31;25.10;71.90
7362;DHT22;3721;44.490;11.220;2022-07-29T04:59:57;25.10;72.20
7362;DHT22;3721;44.490;11.220;2022-07-29T05:02:22;25.00;72.70
7362;DHT22;3721;44.490;11.220;2022-07-29T05:04:48;24.90;73.10
7362;DHT22;3721;44.490;11.220;2022-07-29T05:07:14;24.90;73.60
7362;DHT22;3721;44.490;11.220;2022-07-29T05:09:40;24.80;73.70
7362;DHT22;3721;44.490;11.220;2022-07-29T05:12:06;24.80;73.90
7362;DHT22;3721;44.490;11.220;2022-07-29T05:14:32;24.80;74.30
7362;DHT22;3721;44.490;11.220;2022-07-29T05:16:58;24.90;75.20
7362;DHT22;3721;44.490;11.220;2022-07-29T05:19:23;24.90;74.70
7362;DHT22;3721;44.490;11.220;2022-07-29T05:21:49;24.90;74.80
7362;DHT22;3721;44.490;11.220;2022-07-29T05:24:15;25.00;74.90
7362;DHT22;3721;44.490;11.220;2022-07-29T05:26:41;25.00;74.90
7362;DHT22;3721;44.490;11.220;2022-07-29T05:29:08;25.00;74.70
7362;DHT22;3721;44.490;11.220;2022-07-29T05:31:33;25.00;74.70
7362;DHT22;3721;44.490;11.220;2022-07-29T05:33:59;25.10;74.80
7362;DHT22;3721;44.490;11.220;2022-07-29T05:36:25;25.10;74.60
7362;DHT22;3721;44.490;11.220;2022-07-29T05:38:51;25.10;74.60
7362;DHT22;3721;44.490;11.220;2022-07-29T05:41:18;25.20;74.90
7362;DHT22;3721;44.490;11.220;2022-07-29T05:43:44;25.40;76.00
7362;DHT22;3721;44.490;11.220;2022-07-29T05:46:10;25.70;76.30
7362;DHT22;3721;44.490;11.220;2022-07-29T05:48:36;26.10;76.30
7362;DHT22;3721;44.490;11.220;2022-07-29T05:51:01;26.50;75.70
7362;DHT22;3721;44.490;11.220;2022-07-29T05:53:27;26.90;75.20
7362;DHT22;3721;44.490;11.220;2022-07-29T05:55:53;27.20;74.20
7362;DHT22;3721;44.490;11.220;2022-07-29T05:58:19;27.50;73.10
7362;DHT22;3721;44.490;11.220;2022-07-29T06:00:45;27.70;72.40
7362;DHT22;3721;44.490;11.220;2022-07-29T06:03:11;28.00;72.30
7362;DHT22;3721;44.490;11.220;2022-07-29T06:05:37;28.10;70.90
7362;DHT22;3721;44.490;11.220;2022-07-29T06:08:04;28.30;70.30
7362;DHT22;3721;44.490;11.220;2022-07-29T06:10:34;28.40;70.10
7362;DHT22;3721;44.490;11.220;2022-07-29T06:12:59;28.40;69.70
7362;DHT22;3721;44.490;11.220;2022-07-29T06:15:25;28.50;69.20
7362;DHT22;3721;44.490;11.220;2022-07-29T06:17:51;28.60;68.70
7362;DHT22;3721;44.490;11.220;2022-07-29T06:20:18;28.70;68.10
7362;DHT22;3721;44.490;11.220;2022-07-29T06:22:44;28.70;67.60
7362;DHT22;3721;44.490;11.220;2022-07-29T06:25:10;28.80;67.30
7362;DHT22;3721;44.490;11.220;2022-07-29T06:27:35;28.90;67.20
7362;DHT22;3721;44.490;11.220;2022-07-29T06:30:02;29.00;67.00
7362;DHT22;3721;44.490;11.220;2022-07-29T06:32:28;29.00;66.60
7362;DHT22;3721;44.490;11.220;2022-07-29T06:34:53;29.00;66.30
7362;DHT22;3721;44.490;11.220;2022-07-29T06:37:19;29.00;66.20
7362;DHT22;3721;44.490;11.220;2022-07-29T06:39:45;29.00;66.20
7362;DHT22;3721;44.490;11.220;2022-07-29T06:42:11;29.00;66.30
7362;DHT22;3721;44.490;11.220;2022-07-29T06:44:36;29.10;66.80
7362;DHT22;3721;44.490;11.220;2022-07-29T06:47:03;29.30;67.00
7362;DHT22;3721;44.490;11.220;2022-07-29T06:49:28;29.50;67.00
7362;DHT22;3721;44.490;11.220;2022-07-29T06:51:55;29.80;66.40
7362;DHT22;3721;44.490;11.220;2022-07-29T06:54:21;30.00;66.00
7362;DHT22;3721;44.490;11.220;2022-07-29T06:56:47;30.30;65.70
7362;DHT22;3721;44.490;11.220;2022-07-29T06:59:13;30.50;65.30
7362;DHT22;3721;44.490;11.220;2022-07-29T07:01:41;30.70;64.90
7362;DHT22;3721;44.490;11.220;2022-07-29T07:04:07;31.00;63.80
7362;DHT22;3721;44.490;11.220;2022-07-29T07:06:36;31.20;63.60
7362;DHT22;3721;44.490;11.220;2022-07-29T07:09:03;31.40;63.00
7362;DHT22;3721;44.490;11.220;2022-07-29T07:11:29;31.50;62.00
7362;DHT22;3721;44.490;11.220;2022-07-29T07:13:55;31.60;61.50
7362;DHT22;3721;44.490;11.220;2022-07-29T07:16:20;31.70;60.60
7362;DHT22;3721;44.490;11.220;2022-07-29T07:18:46;31.70;59.90
7362;DHT22;3721;44.490;11.220;2022-07-29T07:21:12;31.80;59.80
7362;DHT22;3721;44.490;11.220;2022-07-29T07:23:38;31.80;59.60
7362;DHT22;3721;44.490;11.220;2022-07-29T07:26:04;31.80;59.50
7362;DHT22;3721;44.490;11.220;2022-07-29T07:28:31;31.90;59.60
7362;DHT22;3721;44.490;11.220;2022-07-29T07:30:57;31.90;59.60
7362;DHT22;3721;44.490;11.220;2022-07-29T07:33:22;31.90;59.50
7362;DHT22;3721;44.490;11.220;2022-07-29T07:35:48;31.90;59.30
7362;DHT22;3721;44.490;11.220;2022-07-29T07:38:14;32.00;59.30
7362;DHT22;3721;44.490;11.220;2022-07-29T07:40:40;32.10;59.00
7362;DHT22;3721;44.490;11.220;2022-07-29T07:43:06;32.10;58.70
7362;DHT22;3721;44.490;11.220;2022-07-29T07:45:32;32.10;58.50
7362;DHT22;3721;44.490;11.220;2022-07-29T07:47:58;32.10;58.60
7362;DHT22;3721;44.490;11.220;2022-07-29T07:50:24;32.30;58.80
7362;DHT22;3721;44.490;11.220;2022-07-29T07:52:54;32.30;58.90
7362;DHT22;3721;44.490;11.220;2022-07-29T07:55:20;32.50;58.90
7362;DHT22;3721;44.490;11.220;2022-07-29T07:57:46;32.60;58.90
7362;DHT22;3721;44.490;11.220;2022-07-29T08:00:13;32.70;58.80
7362;DHT22;3721;44.490;11.220;2022-07-29T08:02:40;32.80;58.20
7362;DHT22;3721;44.490;11.220;2022-07-29T08:05:08;32.90;57.70
7362;DHT22;3721;44.490;11.220;2022-07-29T08:07:34;33.00;57.80
7362;DHT22;3721;44.490;11.220;2022-07-29T08:09:59;33.10;57.40
7362;DHT22;3721;44.490;11.220;2022-07-29T08:12:25;33.10;55.80
7362;DHT22;3721;44.490;11.220;2022-07-29T08:14:51;33.20;55.20
7362;DHT22;3721;44.490;11.220;2022-07-29T08:17:17;33.30;55.60
7362;DHT22;3721;44.490;11.220;2022-07-29T08:19:42;33.30;55.90
7362;DHT22;3721;44.490;11.220;2022-07-29T08:22:08;33.40;55.40
7362;DHT22;3721;44.490;11.220;2022-07-29T08:24:34;33.40;55.70
7362;DHT22;3721;44.490;11.220;2022-07-29T08:27:10;33.50;55.70
7362;DHT22;3721;44.490;11.220;2022-07-29T08:29:36;33.50;55.20
7362;DHT22;3721;44.490;11.220;2022-07-29T08:32:03;33.50;55.10
7362;DHT22;3721;44.490;11.220;2022-07-29T08:34:29;33.50;55.10
7362;DHT22;3721;44.490;11.220;2022-07-29T08:36:56;33.40;55.00
7362;DHT22;3721;44.490;11.220;2022-07-29T08:39:22;33.30;55.30
7362;DHT22;3721;44.490;11.220;2022-07-29T08:41:48;33.30;55.20
7362;DHT22;3721;44.490;11.220;2022-07-29T08:44:19;33.30;55.70
7362;DHT22;3721;44.490;11.220;2022-07-29T08:46:45;33.30;55.50
7362;DHT22;3721;44.490;11.220;2022-07-29T08:49:11;33.40;55.70
7362;DHT22;3721;44.490;11.220;2022-07-29T08:51:39;33.40;55.40
7362;DHT22;3721;44.490;11.220;2022-07-29T08:54:06;33.40;55.70
7362;DHT22;3721;44.490;11.220;2022-07-29T08:56:34;33.30;56.00
7362;DHT22;3721;44.490;11.220;2022-07-29T08:59:03;33.30;55.40
7362;DHT22;3721;44.490;11.220;2022-07-29T09:01:32;33.40;55.20
7362;DHT22;3721;44.490;11.220;2022-07-29T09:03:59;33.30;54.30
7362;DHT22;3721;44.490;11.220;2022-07-29T09:06:29;33.40;54.70
7362;DHT22;3721;44.490;11.220;2022-07-29T09:08:58;33.40;54.80
7362;DHT22;3721;44.490;11.220;2022-07-29T09:11:25;33.40;54.60
7362;DHT22;3721;44.490;11.220;2022-07-29T09:13:51;33.30;54.50
7362;DHT22;3721;44.490;11.220;2022-07-29T09:16:17;33.30;54.80
7362;DHT22;3721;44.490;11.220;2022-07-29T09:18:44;33.20;54.90
7362;DHT22;3721;44.490;11.220;2022-07-29T09:21:13;33.20;54.70
7362;DHT22;3721;44.490;11.220;2022-07-29T09:24:18;33.30;55.00
7362;DHT22;3721;44.490;11.220;2022-07-29T09:26:45;33.30;54.80
7362;DHT22;3721;44.490;11.220;2022-07-29T09:29:16;33.30;54.90
7362;DHT22;3721;44.490;11.220;2022-07-29T09:31:44;33.30;54.70
7362;DHT22;3721;44.490;11.220;2022-07-29T09:34:11;33.30;54.70
7362;DHT22;3721;44.490;11.220;2022-07-29T09:36:45;33.30;54.50
7362;DHT22;3721;44.490;11.220;2022-07-29T09:39:12;33.30;54.60
7362;DHT22;3721;44.490;11.220;2022-07-29T09:41:49;33.30;54.70
7362;DHT22;3721;44.490;11.220;2022-07-29T09:44:18;33.30;54.20
7362;DHT22;3721;44.490;11.220;2022-07-29T09:47:04;33.30;53.80
7362;DHT22;3721;44.490;11.220;2022-07-29T09:49:49;33.30;53.70
7362;DHT22;3721;44.490;11.220;2022-07-29T09:52:16;33.40;53.90
7362;DHT22;3721;44.490;11.220;2022-07-29T09:54:42;33.30;54.10
7362;DHT22;3721;44.490;11.220;2022-07-29T09:57:09;33.30;54.20
7362;DHT22;3721;44.490;11.220;2022-07-29T09:59:59;33.30;54.20
7362;DHT22;3721;44.490;11.220;2022-07-29T10:02:34;33.30;53.40
7362;DHT22;3721;44.490;11.220;2022-07-29T10:05:02;33.30;53.10
7362;DHT22;3721;44.490;11.220;2022-07-29T10:07:47;33.30;53.00
7362;DHT22;3721;44.490;11.220;2022-07-29T10:10:40;33.30;53.40
7362;DHT22;3721;44.490;11.220;2022-07-29T10:13:11;33.30;53.20
7362;DHT22;3721;44.490;11.220;2022-07-29T10:15:42;33.30;52.90
7362;DHT22;3721;44.490;11.220;2022-07-29T10:18:10;33.40;52.80
7362;DHT22;3721;44.490;11.220;2022-07-29T10:20:38;33.40;52.70
7362;DHT22;3721;44.490;11.220;2022-07-29T10:23:04;33.50;52.90
7362;DHT22;3721;44.490;11.220;2022-07-29T10:25:31;33.40;53.10
7362;DHT22;3721;44.490;11.220;2022-07-29T10:27:57;33.50;53.40
7362;DHT22;3721;44.490;11.220;2022-07-29T10:30:25;33.50;53.30
7362;DHT22;3721;44.490;11.220;2022-07-29T10:33:17;33.50;53.20
7362;DHT22;3721;44.490;11.220;2022-07-29T10:44:16;33.70;52.90
7362;DHT22;3721;44.490;11.220;2022-07-29T10:46:42;33.60;52.90
7362;DHT22;3721;44.490;11.220;2022-07-29T10:54:48;33.70;51.70
7362;DHT22;3721;44.490;11.220;2022-07-29T10:57:29;33.70;51.30
7362;DHT22;3721;44.490;11.220;2022-07-29T11:05:07;33.90;51.30
7362;DHT22;3721;44.490;11.220;2022-07-29T11:07:38;33.90;51.10
7362;DHT22;3721;44.490;11.220;2022-07-29T11:15:29;34.00;51.10
7362;DHT22;3721;44.490;11.220;2022-07-29T11:20:45;33.90;52.00
7362;DHT22;3721;44.490;11.220;2022-07-29T11:23:18;33.90;51.80
7362;DHT22;3721;44.490;11.220;2022-07-29T11:25:45;34.00;51.30
7362;DHT22;3721;44.490;11.220;2022-07-29T11:28:18;34.00;51.30
7362;DHT22;3721;44.490;11.220;2022-07-29T11:30:50;34.00;50.90
7362;DHT22;3721;44.490;11.220;2022-07-29T11:33:34;34.10;50.90
7362;DHT22;3721;44.490;11.220;2022-07-29T11:36:14;34.10;50.80
7362;DHT22;3721;44.490;11.220;2022-07-29T11:38:40;34.20;50.50
7362;DHT22;3721;44.490;11.220;2022-07-29T11:41:26;34.20;50.30
7362;DHT22;3721;44.490;11.220;2022-07-29T11:43:56;34.20;50.10
7362;DHT22;3721;44.490;11.220;2022-07-29T11:49:25;34.30;50.00
7362;DHT22;3721;44.490;11.220;2022-07-29T11:51:56;34.30;49.90
7362;DHT22;3721;44.490;11.220;2022-07-29T11:54:33;34.20;50.00
7362;DHT22;3721;44.490;11.220;2022-07-29T11:56:59;34.20;50.10
7362;DHT22;3721;44.490;11.220;2022-07-29T11:59:26;34.20;50.10
7362;DHT22;3721;44.490;11.220;2022-07-29T12:01:59;34.20;50.40
7362;DHT22;3721;44.490;11.220;2022-07-29T12:04:25;34.30;50.70
7362;DHT22;3721;44.490;11.220;2022-07-29T12:06:55;34.30;50.40
7362;DHT22;3721;44.490;11.220;2022-07-29T12:09:23;34.30;49.50
7362;DHT22;3721;44.490;11.220;2022-07-29T12:11:58;34.30;49.60
7362;DHT22;3721;44.490;11.220;2022-07-29T12:14:31;34.30;49.70
7362;DHT22;3721;44.490;11.220;2022-07-29T12:16:59;34.30;49.70
7362;DHT22;3721;44.490;11.220;2022-07-29T12:19:28;34.40;49.70
7362;DHT22;3721;44.490;11.220;2022-07-29T12:21:55;34.40;49.50
7362;DHT22;3721;44.490;11.220;2022-07-29T12:24:21;34.50;49.60
7362;DHT22;3721;44.490;11.220;2022-07-29T12:26:58;34.40;49.40
7362;DHT22;3721;44.490;11.220;2022-07-29T12:29:24;34.50;49.40
7362;DHT22;3721;44.490;11.220;2022-07-29T12:31:53;34.40;49.30
7362;DHT22;3721;44.490;11.220;2022-07-29T12:34:22;34.40;49.20
7362;DHT22;3721;44.490;11.220;2022-07-29T12:36:49;34.30;49.10
7362;DHT22;3721;44.490;11.220;2022-07-29T12:39:16;34.40;49.40
7362;DHT22;3721;44.490;11.220;2022-07-29T12:41:42;34.40;49.40
7362;DHT22;3721;44.490;11.220;2022-07-29T12:44:09;34.40;49.40
7362;DHT22;3721;44.490;11.220;2022-07-29T12:46:35;34.50;49.50
7362;DHT22;3721;44.490;11.220;2022-07-29T12:49:02;34.50;49.80
7362;DHT22;3721;44.490;11.220;2022-07-29T12:51:38;34.40;49.40
7362;DHT22;3721;44.490;11.220;2022-07-29T12:54:09;34.40;49.20
7362;DHT22;3721;44.490;11.220;2022-07-29T12:56:37;34.30;48.90
7362;DHT22;3721;44.490;11.220;2022-07-29T12:59:32;34.30;49.00
7362;DHT22;3721;44.490;11.220;2022-07-29T13:01:58;34.30;49.30
7362;DHT22;3721;44.490;11.220;2022-07-29T13:04:32;34.30;49.20
7362;DHT22;3721;44.490;11.220;2022-07-29T13:07:06;34.20;49.10
7362;DHT22;3721;44.490;11.220;2022-07-29T13:09:46;34.20;49.30
7362;DHT22;3721;44.490;11.220;2022-07-29T13:12:13;34.10;49.20
7362;DHT22;3721;44.490;11.220;2022-07-29T13:14:44;34.20;49.20
7362;DHT22;3721;44.490;11.220;2022-07-29T13:17:18;34.20;49.10
7362;DHT22;3721;44.490;11.220;2022-07-29T13:19:51;34.30;49.00
7362;DHT22;3721;44.490;11.220;2022-07-29T13:22:22;34.30;48.90
7362;DHT22;3721;44.490;11.220;2022-07-29T13:24:53;34.30;49.00
7362;DHT22;3721;44.490;11.220;2022-07-29T13:27:24;34.20;49.10
7362;DHT22;3721;44.490;11.220;2022-07-29T13:29:50;34.20;49.20
7362;DHT22;3721;44.490;11.220;2022-07-29T13:32:20;34.10;49.40
7362;DHT22;3721;44.490;11.220;2022-07-29T13:34:46;34.10;50.00
7362;DHT22;3721;44.490;11.220;2022-07-29T13:37:12;34.10;49.70
7362;DHT22;3721;44.490;11.220;2022-07-29T13:39:38;34.10;49.40
7362;DHT22;3721;44.490;11.220;2022-07-29T13:42:05;34.10;49.40
7362;DHT22;3721;44.490;11.220;2022-07-29T13:44:31;34.10;49.50
7362;DHT22;3721;44.490;11.220;2022-07-29T13:46:57;34.10;49.70
7362;DHT22;3721;44.490;11.220;2022-07-29T13:49:25;34.10;49.80
7362;DHT22;3721;44.490;11.220;2022-07-29T13:51:50;34.10;49.90
7362;DHT22;3721;44.490;11.220;2022-07-29T13:54:16;34.20;49.70
7362;DHT22;3721;44.490;11.220;2022-07-29T13:56:42;34.20;49.80
7362;DHT22;3721;44.490;11.220;2022-07-29T13:59:08;34.20;49.60
7362;DHT22;3721;44.490;11.220;2022-07-29T14:01:36;34.20;49.40
7362;DHT22;3721;44.490;11.220;2022-07-29T14:04:03;34.20;49.10
7362;DHT22;3721;44.490;11.220;2022-07-29T14:06:28;34.10;49.40
7362;DHT22;3721;44.490;11.220;2022-07-29T14:08:54;34.10;49.70
7362;DHT22;3721;44.490;11.220;2022-07-29T14:11:20;34.00;49.80
7362;DHT22;3721;44.490;11.220;2022-07-29T14:13:46;34.00;50.10
7362;DHT22;3721;44.490;11.220;2022-07-29T14:16:12;33.90;50.30
7362;DHT22;3721;44.490;11.220;2022-07-29T14:18:38;33.80;50.70
7362;DHT22;3721;44.490;11.220;2022-07-29T14:21:03;33.80;51.40
7362;DHT22;3721;44.490;11.220;2022-07-29T14:23:29;33.80;51.30
7362;DHT22;3721;44.490;11.220;2022-07-29T14:25:55;33.70;51.10
7362;DHT22;3721;44.490;11.220;2022-07-29T14:28:21;33.60;51.20
7362;DHT22;3721;44.490;11.220;2022-07-29T14:30:47;33.60;51.20
7362;DHT22;3721;44.490;11.220;2022-07-29T14:33:12;33.50;51.40
7362;DHT22;3721;44.490;11.220;2022-07-29T14:35:38;33.40;51.30
7362;DHT22;3721;44.490;11.220;2022-07-29T14:38:04;33.40;51.60
7362;DHT22;3721;44.490;11.220;2022-07-29T14:40:30;33.30;51.40
7362;DHT22;3721;44.490;11.220;2022-07-29T14:42:57;33.30;51.50
7362;DHT22;3721;44.490;11.220;2022-07-29T14:45:22;33.20;51.70
7362;DHT22;3721;44.490;11.220;2022-07-29T14:47:48;33.20;51.50
7362;DHT22;3721;44.490;11.220;2022-07-29T14:50:16;33.10;51.50
7362;DHT22;3721;44.490;11.220;2022-07-29T14:52:43;33.10;51.60
7362;DHT22;3721;44.490;11.220;2022-07-29T14:55:09;33.00;51.70
7362;DHT22;3721;44.490;11.220;2022-07-29T14:57:35;33.00;51.90
7362;DHT22;3721;44.490;11.220;2022-07-29T15:00:02;32.90;52.20
7362;DHT22;3721;44.490;11.220;2022-07-29T15:02:28;32.80;52.60
7362;DHT22;3721;44.490;11.220;2022-07-29T15:04:55;32.70;53.20
7362;DHT22;3721;44.490;11.220;2022-07-29T15:07:21;32.70;54.00
7362;DHT22;3721;44.490;11.220;2022-07-29T15:09:47;32.60;54.30
7362;DHT22;3721;44.490;11.220;2022-07-29T15:12:13;32.50;54.10
7362;DHT22;3721;44.490;11.220;2022-07-29T15:14:39;32.40;54.20
7362;DHT22;3721;44.490;11.220;2022-07-29T15:17:05;32.40;54.20
7362;DHT22;3721;44.490;11.220;2022-07-29T15:19:30;32.40;54.40
7362;DHT22;3721;44.490;11.220;2022-07-29T15:21:56;32.30;54.40
7362;DHT22;3721;44.490;11.220;2022-07-29T15:24:22;32.30;54.60
7362;DHT22;3721;44.490;11.220;2022-07-29T15:26:48;32.30;54.60
7362;DHT22;3721;44.490;11.220;2022-07-29T15:29:14;32.30;54.80
7362;DHT22;3721;44.490;11.220;2022-07-29T15:31:40;32.20;54.90
7362;DHT22;3721;44.490;11.220;2022-07-29T15:34:06;32.20;54.80
7362;DHT22;3721;44.490;11.220;2022-07-29T15:36:32;32.10;54.70
7362;DHT22;3721;44.490;11.220;2022-07-29T15:38:57;32.20;54.80
7362;DHT22;3721;44.490;11.220;2022-07-29T15:41:23;32.20;54.80
7362;DHT22;3721;44.490;11.220;2022-07-29T15:43:49;32.10;54.90
7362;DHT22;3721;44.490;11.220;2022-07-29T15:46:17;32.10;55.20
7362;DHT22;3721;44.490;11.220;2022-07-29T15:49:03;32.00;55.50
7362;DHT22;3721;44.490;11.220;2022-07-29T15:51:29;32.00;55.90
7362;DHT22;3721;44.490;11.220;2022-07-29T15:53:55;31.90;55.90
7362;DHT22;3721;44.490;11.220;2022-07-29T15:56:22;32.00;55.90
7362;DHT22;3721;44.490;11.220;2022-07-29T15:58:48;32.00;55.90
7362;DHT22;3721;44.490;11.220;2022-07-29T16:01:13;32.10;56.80
7362;DHT22;3721;44.490;11.220;2022-07-29T16:03:39;32.10;57.40
7362;DHT22;3721;44.490;11.220;2022-07-29T16:06:05;32.00;58.00
7362;DHT22;3721;44.490;11.220;2022-07-29T16:08:31;31.90;58.20
7362;DHT22;3721;44.490;11.220;2022-07-29T16:10:56;31.90;58.50
7362;DHT22;3721;44.490;11.220;2022-07-29T16:13:22;31.90;58.60
7362;DHT22;3721;44.490;11.220;2022-07-29T16:15:48;31.80;58.50
7362;DHT22;3721;44.490;11.220;2022-07-29T16:18:16;31.80;58.10
7362;DHT22;3721;44.490;11.220;2022-07-29T16:20:42;31.90;58.50
7362;DHT22;3721;44.490;11.220;2022-07-29T16:23:08;31.90;58.00
7362;DHT22;3721;44.490;11.220;2022-07-29T16:25:37;31.80;58.20
7362;DHT22;3721;44.490;11.220;2022-07-29T16:28:03;31.80;58.10
7362;DHT22;3721;44.490;11.220;2022-07-29T16:30:29;31.70;58.20
7362;DHT22;3721;44.490;11.220;2022-07-29T16:32:55;31.70;58.60